sensor_id;sensor_type;location;lat;lon;timestamp;pressure;altitude;pressure_sealevel;temperature;humidity
4617;BME280;2321;42.704;23.384;2022-12-07T00:00:20;95433.91;;;6.62;100.00
4617;BME280;2321;42.704;23.384;2022-12-07T00:02:47;95433.59;;;6.65;100.00
4617;BME280;2321;42.704;23.384;2022-12-07T00:05:14;95434.56;;;6.64;100.00
4617;BME280;2321;42.704;23.384;2022-12-07T00:07:41;95438.56;;;6.68;100.00
4617;BME280;2321;42.704;23.384;2022-12-07T00:10:08;95432.75;;;6.64;100.00
4617;BME280;2321;42.704;23.384;2022-12-07T00:12:35;95432.94;;;6.71;100.00
4617;BME280;2321;42.704;23.384;2022-12-07T00:15:04;95420.50;;;6.72;100.00
4617;BME280;2321;42.704;23.384;2022-12-07T00:17:31;95418.19;;;6.77;100.00
4617;BME280;2321;42.704;23.384;2022-12-07T00:19:59;95421.50;;;6.79;100.00
4617;BME280;2321;42.704;23.384;2022-12-07T00:22:26;95427.28;;;6.83;100.00
4617;BME280;2321;42.704;23.384;2022-12-07T00:24:52;95425.13;;;6.86;100.00
4617;BME280;2321;42.704;23.384;2022-12-07T00:27:19;95425.28;;;6.85;100.00
4617;BME280;2321;42.704;23.384;2022-12-07T00:29:46;95422.47;;;6.86;100.00
4617;BME280;2321;42.704;23.384;2022-12-07T00:32:15;95425.78;;;6.89;100.00
4617;BME280;2321;42.704;23.384;2022-12-07T00:34:42;95438.00;;;6.98;100.00
4617;BME280;2321;42.704;23.384;2022-12-07T00:37:09;95433.88;;;6.87;100.00
4617;BME280;2321;42.704;23.384;2022-12-07T00:39:35;95432.06;;;6.88;100.00
4617;BME280;2321;42.704;23.384;2022-12-07T00:42:02;95436.53;;;6.95;100.00
4617;BME280;2321;42.704;23.384;2022-12-07T00:44:29;95434.56;;;6.89;100.00
4617;BME280;2321;42.704;23.384;2022-12-07T00:46:56;95435.19;;;6.91;100.00
4617;BME280;2321;42.704;23.384;2022-12-07T00:49:25;95428.91;;;6.92;100.00
4617;BME280;2321;42.704;23.384;2022-12-07T00:51:52;95429.41;;;6.88;100.00
4617;BME280;2321;42.704;23.384;2022-12-07T00:54:18;95423.28;;;6.87;100.00
4617;BME280;2321;42.704;23.384;2022-12-07T00:56:45;95413.72;;;6.78;100.00
4617;BME280;2321;42.704;23.384;2022-12-07T00:59:13;95413.53;;;6.88;100.00
4617;BME280;2321;42.704;23.384;2022-12-07T01:01:41;95416.97;;;6.96;100.00
4617;BME280;2321;42.704;23.384;2022-12-07T01:04:08;95420.16;;;6.92;100.00
4617;BME280;2321;42.704;23.384;2022-12-07T01:06:36;95411.06;;;6.86;100.00
4617;BME280;2321;42.704;23.384;2022-12-07T01:09:03;95406.09;;;6.91;100.00
4617;BME280;2321;42.704;23.384;2022-12-07T01:11:32;95413.72;;;6.86;100.00
4617;BME280;2321;42.704;23.384;2022-12-07T01:13:59;95415.34;;;6.87;100.00
4617;BME280;2321;42.704;23.384;2022-12-07T01:16:29;95421.63;;;6.94;100.00
4617;BME280;2321;42.704;23.384;2022-12-07T01:18:57;95420.63;;;6.87;100.00
4617;BME280;2321;42.704;23.384;2022-12-07T01:21:26;95419.00;;;6.86;100.00
4617;BME280;2321;42.704;23.384;2022-12-07T01:23:56;95413.53;;;6.88;100.00
4617;BME280;2321;42.704;23.384;2022-12-07T01:26:24;95406.75;;;6.85;100.00
4617;BME280;2321;42.704;23.384;2022-12-07T01:28:52;95403.78;;;6.80;100.00
4617;BME280;2321;42.704;23.384;2022-12-07T01:31:21;95403.78;;;6.80;100.00
4617;BME280;2321;42.704;23.384;2022-12-07T01:33:51;95406.44;;;6.80;100.00
4617;BME280;2321;42.704;23.384;2022-12-07T01:36:20;95396.50;;;6.82;100.00
4617;BME280;2321;42.704;23.384;2022-12-07T01:38:48;95401.66;;;6.83;100.00
4617;BME280;2321;42.704;23.384;2022-12-07T01:41:19;95401.47;;;6.85;100.00
4617;BME280;2321;42.704;23.384;2022-12-07T01:44:10;95398.16;;;6.83;100.00
4617;BME280;2321;42.704;23.384;2022-12-07T01:46:38;95401.47;;;6.85;100.00
4617;BME280;2321;42.704;23.384;2022-12-07T01:49:06;95400.28;;;6.88;100.00
4617;BME280;2321;42.704;23.384;2022-12-07T01:51:37;95402.78;;;6.89;100.00
4617;BME280;2321;42.704;23.384;2022-12-07T01:54:07;95394.16;;;6.87;100.00
4617;BME280;2321;42.704;23.384;2022-12-07T01:56:36;95394.66;;;6.91;100.00
4617;BME280;2321;42.704;23.384;2022-12-07T01:59:05;95388.19;;;6.93;100.00
4617;BME280;2321;42.704;23.384;2022-12-07T02:01:32;95382.94;;;6.85;100.00
4617;BME280;2321;42.704;23.384;2022-12-07T02:03:59;95385.09;;;6.81;100.00
4617;BME280;2321;42.704;23.384;2022-12-07T02:06:26;95372.69;;;6.82;100.00
4617;BME280;2321;42.704;23.384;2022-12-07T02:08:53;95380.28;;;6.85;100.00
4617;BME280;2321;42.704;23.384;2022-12-07T02:11:20;95381.31;;;6.75;100.00
4617;BME280;2321;42.704;23.384;2022-12-07T02:13:49;95381.31;;;6.75;100.00
4617;BME280;2321;42.704;23.384;2022-12-07T02:16:25;95381.94;;;6.86;100.00
4617;BME280;2321;42.704;23.384;2022-12-07T02:19:07;95387.91;;;6.88;100.00
4617;BME280;2321;42.704;23.384;2022-12-07T02:21:48;95385.91;;;6.90;100.00
4617;BME280;2321;42.704;23.384;2022-12-07T02:24:43;95380.59;;;6.90;100.00
4617;BME280;2321;42.704;23.384;2022-12-07T02:27:37;95383.91;;;6.84;100.00
4617;BME280;2321;42.704;23.384;2022-12-07T02:30:10;95377.81;;;6.83;100.00
4617;BME280;2321;42.704;23.384;2022-12-07T02:32:43;95369.53;;;6.78;100.00
4617;BME280;2321;42.704;23.384;2022-12-07T02:35:17;95365.25;;;6.85;100.00
4617;BME280;2321;42.704;23.384;2022-12-07T02:37:53;95365.25;;;6.85;100.00
4617;BME280;2321;42.704;23.384;2022-12-07T02:40:27;95368.91;;;6.76;100.00
4617;BME280;2321;42.704;23.384;2022-12-07T02:42:59;95368.03;;;6.84;100.00
4617;BME280;2321;42.704;23.384;2022-12-07T02:45:31;95369.72;;;6.77;100.00
4617;BME280;2321;42.704;23.384;2022-12-07T02:47:59;95368.72;;;6.86;100.00
4617;BME280;2321;42.704;23.384;2022-12-07T02:50:27;95376.34;;;6.81;100.00
4617;BME280;2321;42.704;23.384;2022-12-07T02:52:54;95359.97;;;6.69;100.00
4617;BME280;2321;42.704;23.384;2022-12-07T02:55:29;95367.41;;;6.73;100.00
4617;BME280;2321;42.704;23.384;2022-12-07T02:58:11;95361.63;;;6.70;100.00
4617;BME280;2321;42.704;23.384;2022-12-07T03:00:52;95363.44;;;6.69;100.00
4617;BME280;2321;42.704;23.384;2022-12-07T03:03:22;95363.13;;;6.64;100.00
4617;BME280;2321;42.704;23.384;2022-12-07T03:05:59;95360.81;;;6.61;100.00
4617;BME280;2321;42.704;23.384;2022-12-07T03:08:36;95348.59;;;6.60;100.00
4617;BME280;2321;42.704;23.384;2022-12-07T03:11:06;95360.19;;;6.59;100.00
4617;BME280;2321;42.704;23.384;2022-12-07T03:13:40;95349.09;;;6.55;100.00
4617;BME280;2321;42.704;23.384;2022-12-07T03:16:14;95340.00;;;6.41;100.00
4617;BME280;2321;42.704;23.384;2022-12-07T03:18:45;95344.81;;;6.46;100.00
4617;BME280;2321;42.704;23.384;2022-12-07T03:21:16;95346.13;;;6.41;100.00
4617;BME280;2321;42.704;23.384;2022-12-07T03:23:48;95348.31;;;6.38;100.00
4617;BME280;2321;42.704;23.384;2022-12-07T03:26:18;95343.81;;;6.38;100.00
4617;BME280;2321;42.704;23.384;2022-12-07T03:28:50;95343.34;;;6.35;100.00
4617;BME280;2321;42.704;23.384;2022-12-07T03:31:22;95337.06;;;6.36;100.00
4617;BME280;2321;42.704;23.384;2022-12-07T03:33:56;95344.00;;;6.37;100.00
4617;BME280;2321;42.704;23.384;2022-12-07T03:36:31;95355.41;;;6.46;100.00
4617;BME280;2321;42.704;23.384;2022-12-07T03:39:03;95355.22;;;6.39;100.00
4617;BME280;2321;42.704;23.384;2022-12-07T03:41:35;95361.88;;;6.35;100.00
4617;BME280;2321;42.704;23.384;2022-12-07T03:44:04;95365.31;;;6.27;100.00
4617;BME280;2321;42.704;23.384;2022-12-07T03:46:37;95349.44;;;6.27;100.00
4617;BME280;2321;42.704;23.384;2022-12-07T03:49:16;95357.22;;;6.20;100.00
4617;BME280;2321;42.704;23.384;2022-12-07T03:51:48;95351.47;;;6.16;100.00
4617;BME280;2321;42.704;23.384;2022-12-07T03:54:22;95351.09;;;6.19;100.00
4617;BME280;2321;42.704;23.384;2022-12-07T03:56:51;95350.28;;;6.27;100.00
4617;BME280;2321;42.704;23.384;2022-12-07T03:59:19;95354.59;;;6.28;100.00
4617;BME280;2321;42.704;23.384;2022-12-07T04:01:53;95345.81;;;6.19;100.00
4617;BME280;2321;42.704;23.384;2022-12-07T04:04:21;95339.38;;;6.14;100.00
4617;BME280;2321;42.704;23.384;2022-12-07T04:06:48;95334.72;;;6.07;100.00
4617;BME280;2321;42.704;23.384;2022-12-07T04:09:15;95320.53;;;6.00;100.00
4617;BME280;2321;42.704;23.384;2022-12-07T04:11:42;95342.00;;;6.14;100.00
4617;BME280;2321;42.704;23.384;2022-12-07T04:14:09;95339.19;;;6.07;100.00
4617;BME280;2321;42.704;23.384;2022-12-07T04:16:46;95334.06;;;6.05;100.00
4617;BME280;2321;42.704;23.384;2022-12-07T04:19:14;95337.22;;;6.01;100.00
4617;BME280;2321;42.704;23.384;2022-12-07T04:21:42;95330.09;;;5.93;100.00
4617;BME280;2321;42.704;23.384;2022-12-07T04:24:10;95336.88;;;5.87;100.00
4617;BME280;2321;42.704;23.384;2022-12-07T04:26:38;95332.75;;;5.84;100.00
4617;BME280;2321;42.704;23.384;2022-12-07T04:29:05;95339.03;;;5.92;100.00
4617;BME280;2321;42.704;23.384;2022-12-07T04:31:31;95342.31;;;5.94;100.00
4617;BME280;2321;42.704;23.384;2022-12-07T04:33:58;95344.66;;;5.88;100.00
4617;BME280;2321;42.704;23.384;2022-12-07T04:36:27;95343.13;;;5.86;100.00
4617;BME280;2321;42.704;23.384;2022-12-07T04:38:54;95340.16;;;5.89;100.00
4617;BME280;2321;42.704;23.384;2022-12-07T04:41:22;95334.06;;;5.88;100.00
4617;BME280;2321;42.704;23.384;2022-12-07T04:43:53;95338.84;;;5.93;100.00
4617;BME280;2321;42.704;23.384;2022-12-07T04:46:21;95342.97;;;5.96;100.00
4617;BME280;2321;42.704;23.384;2022-12-07T04:48:48;95345.94;;;5.93;100.00
4617;BME280;2321;42.704;23.384;2022-12-07T04:51:16;95358.00;;;5.95;100.00
4617;BME280;2321;42.704;23.384;2022-12-07T04:53:46;95357.19;;;5.95;100.00
4617;BME280;2321;42.704;23.384;2022-12-07T04:56:14;95347.94;;;5.91;100.00
4617;BME280;2321;42.704;23.384;2022-12-07T04:58:41;95347.59;;;5.85;100.00
4617;BME280;2321;42.704;23.384;2022-12-07T05:01:08;95350.22;;;5.69;100.00
4617;BME280;2321;42.704;23.384;2022-12-07T05:03:36;95349.41;;;5.76;100.00
4617;BME280;2321;42.704;23.384;2022-12-07T05:06:04;95350.06;;;5.70;100.00
4617;BME280;2321;42.704;23.384;2022-12-07T05:08:31;95356.00;;;5.72;100.00
4617;BME280;2321;42.704;23.384;2022-12-07T05:11:00;95339.97;;;5.65;100.00
4617;BME280;2321;42.704;23.384;2022-12-07T05:13:28;95350.03;;;5.62;100.00
4617;BME280;2321;42.704;23.384;2022-12-07T05:15:55;95352.84;;;5.60;100.00
4617;BME280;2321;42.704;23.384;2022-12-07T05:18:22;95358.91;;;5.52;100.00
4617;BME280;2321;42.704;23.384;2022-12-07T05:20:49;95349.50;;;5.50;100.00
4617;BME280;2321;42.704;23.384;2022-12-07T05:23:17;95352.63;;;5.37;100.00
4617;BME280;2321;42.704;23.384;2022-12-07T05:25:44;95349.81;;;5.38;100.00
4617;BME280;2321;42.704;23.384;2022-12-07T05:28:13;95348.34;;;5.44;100.00
4617;BME280;2321;42.704;23.384;2022-12-07T05:30:40;95341.91;;;5.47;100.00
4617;BME280;2321;42.704;23.384;2022-12-07T05:33:07;95355.81;;;5.49;100.00
4617;BME280;2321;42.704;23.384;2022-12-07T05:35:34;95344.22;;;5.41;100.00
4617;BME280;2321;42.704;23.384;2022-12-07T05:38:03;95359.94;;;5.51;100.00
4617;BME280;2321;42.704;23.384;2022-12-07T05:40:30;95363.53;;;5.50;100.00
4617;BME280;2321;42.704;23.384;2022-12-07T05:42:57;95356.75;;;5.39;100.00
4617;BME280;2321;42.704;23.384;2022-12-07T05:45:25;95357.88;;;5.28;100.00
4617;BME280;2321;42.704;23.384;2022-12-07T05:47:52;95356.91;;;5.38;100.00
4617;BME280;2321;42.704;23.384;2022-12-07T05:50:19;95351.28;;;5.32;100.00
4617;BME280;2321;42.704;23.384;2022-12-07T05:52:46;95353.09;;;5.23;100.00
4617;BME280;2321;42.704;23.384;2022-12-07T05:55:13;95346.97;;;5.23;100.00
4617;BME280;2321;42.704;23.384;2022-12-07T05:57:40;95338.91;;;5.33;100.00
4617;BME280;2321;42.704;23.384;2022-12-07T06:00:29;95337.44;;;5.39;100.00
4617;BME280;2321;42.704;23.384;2022-12-07T06:02:54;95340.09;;;5.39;100.00
4617;BME280;2321;42.704;23.384;2022-12-07T06:05:21;95340.72;;;5.32;100.00
4617;BME280;2321;42.704;23.384;2022-12-07T06:07:48;95347.19;;;5.38;100.00
4617;BME280;2321;42.704;23.384;2022-12-07T06:10:16;95342.09;;;5.45;100.00
4617;BME280;2321;42.704;23.384;2022-12-07T06:12:42;95346.03;;;5.41;100.00
4617;BME280;2321;42.704;23.384;2022-12-07T06:15:11;95345.19;;;5.40;100.00
4617;BME280;2321;42.704;23.384;2022-12-07T06:17:40;95346.34;;;5.38;100.00
4617;BME280;2321;42.704;23.384;2022-12-07T06:20:07;95350.16;;;5.43;100.00
4617;BME280;2321;42.704;23.384;2022-12-07T06:22:34;95340.44;;;5.52;100.00
4617;BME280;2321;42.704;23.384;2022-12-07T06:25:01;95344.91;;;5.52;100.00
4617;BME280;2321;42.704;23.384;2022-12-07T06:27:29;95343.56;;;5.48;100.00
4617;BME280;2321;42.704;23.384;2022-12-07T06:29:58;95344.56;;;5.47;100.00
4617;BME280;2321;42.704;23.384;2022-12-07T06:32:25;95333.16;;;5.38;100.00
4617;BME280;2321;42.704;23.384;2022-12-07T06:34:53;95354.81;;;5.58;100.00
4617;BME280;2321;42.704;23.384;2022-12-07T06:37:20;95351.69;;;5.71;100.00
4617;BME280;2321;42.704;23.384;2022-12-07T06:39:47;95358.47;;;5.57;100.00
4617;BME280;2321;42.704;23.384;2022-12-07T06:42:14;95354.16;;;5.64;100.00
4617;BME280;2321;42.704;23.384;2022-12-07T06:44:41;95359.94;;;5.60;100.00
4617;BME280;2321;42.704;23.384;2022-12-07T06:47:09;95358.78;;;5.54;100.00
4617;BME280;2321;42.704;23.384;2022-12-07T06:49:36;95364.06;;;5.54;100.00
4617;BME280;2321;42.704;23.384;2022-12-07T06:52:05;95363.28;;;5.70;100.00
4617;BME280;2321;42.704;23.384;2022-12-07T06:54:32;95358.47;;;5.74;100.00
4617;BME280;2321;42.704;23.384;2022-12-07T06:56:59;95364.41;;;5.67;100.00
4617;BME280;2321;42.704;23.384;2022-12-07T06:59:26;95363.09;;;5.72;100.00
4617;BME280;2321;42.704;23.384;2022-12-07T07:01:53;95352.38;;;5.73;100.00
4617;BME280;2321;42.704;23.384;2022-12-07T07:04:20;95363.94;;;5.89;100.00
4617;BME280;2321;42.704;23.384;2022-12-07T07:06:46;95364.94;;;5.96;100.00
4617;BME280;2321;42.704;23.384;2022-12-07T07:09:15;95359.34;;;5.91;100.00
4617;BME280;2321;42.704;23.384;2022-12-07T07:11:42;95348.78;;;5.91;100.00
4617;BME280;2321;42.704;23.384;2022-12-07T07:14:09;95351.91;;;5.95;100.00
4617;BME280;2321;42.704;23.384;2022-12-07T07:16:36;95360.66;;;6.04;100.00
4617;BME280;2321;42.704;23.384;2022-12-07T07:19:03;95366.75;;;6.04;100.00
4617;BME280;2321;42.704;23.384;2022-12-07T07:21:29;95366.44;;;6.07;100.00
4617;BME280;2321;42.704;23.384;2022-12-07T07:23:56;95369.41;;;5.96;100.00
4617;BME280;2321;42.704;23.384;2022-12-07T07:26:25;95360.16;;;5.92;100.00
4617;BME280;2321;42.704;23.384;2022-12-07T07:28:52;95372.03;;;5.79;100.00
4617;BME280;2321;42.704;23.384;2022-12-07T07:31:19;95368.56;;;5.70;100.00
4617;BME280;2321;42.704;23.384;2022-12-07T07:33:46;95367.56;;;5.80;100.00
4617;BME280;2321;42.704;23.384;2022-12-07T07:36:12;95369.06;;;5.82;100.00
4617;BME280;2321;42.704;23.384;2022-12-07T07:38:40;95372.03;;;5.87;100.00
4617;BME280;2321;42.704;23.384;2022-12-07T07:41:06;95379.59;;;5.74;100.00
4617;BME280;2321;42.704;23.384;2022-12-07T07:43:35;95373.34;;;5.83;100.00
4617;BME280;2321;42.704;23.384;2022-12-07T07:46:02;95365.09;;;5.86;100.00
4617;BME280;2321;42.704;23.384;2022-12-07T07:48:29;95376.69;;;5.94;100.00
4617;BME280;2321;42.704;23.384;2022-12-07T07:50:56;95372.69;;;5.89;100.00
4617;BME280;2321;42.704;23.384;2022-12-07T07:53:22;95361.81;;;5.93;100.00
4617;BME280;2321;42.704;23.384;2022-12-07T07:55:53;95365.78;;;6.05;100.00
4617;BME280;2321;42.704;23.384;2022-12-07T07:58:20;95369.44;;;6.21;100.00
4617;BME280;2321;42.704;23.384;2022-12-07T08:00:48;95373.06;;;6.20;100.00
4617;BME280;2321;42.704;23.384;2022-12-07T08:03:15;95363.19;;;6.22;100.00
4617;BME280;2321;42.704;23.384;2022-12-07T08:05:42;95369.78;;;6.35;100.00
4617;BME280;2321;42.704;23.384;2022-12-07T08:08:09;95352.56;;;6.47;100.00
4617;BME280;2321;42.704;23.384;2022-12-07T08:10:36;95369.75;;;6.60;100.00
4617;BME280;2321;42.704;23.384;2022-12-07T08:13:03;95370.56;;;6.69;100.00
4617;BME280;2321;42.704;23.384;2022-12-07T08:15:41;95364.59;;;6.75;100.00
4617;BME280;2321;42.704;23.384;2022-12-07T08:18:10;95370.38;;;6.79;100.00
4617;BME280;2321;42.704;23.384;2022-12-07T08:20:38;95370.53;;;6.85;100.00
4617;BME280;2321;42.704;23.384;2022-12-07T08:23:06;95369.22;;;6.90;100.00
4617;BME280;2321;42.704;23.384;2022-12-07T08:25:34;95363.69;;;7.00;100.00
4617;BME280;2321;42.704;23.384;2022-12-07T08:28:04;95370.97;;;7.14;100.00
4617;BME280;2321;42.704;23.384;2022-12-07T08:30:31;95372.91;;;7.21;100.00
4617;BME280;2321;42.704;23.384;2022-12-07T08:32:59;95368.91;;;7.25;100.00
4617;BME280;2321;42.704;23.384;2022-12-07T08:35:27;95374.34;;;7.32;100.00
4617;BME280;2321;42.704;23.384;2022-12-07T08:37:54;95371.88;;;7.30;100.00
4617;BME280;2321;42.704;23.384;2022-12-07T08:40:23;95368.72;;;7.35;100.00
4617;BME280;2321;42.704;23.384;2022-12-07T08:42:50;95366.91;;;7.35;100.00
4617;BME280;2321;42.704;23.384;2022-12-07T08:45:18;95356.59;;;7.40;100.00
4617;BME280;2321;42.704;23.384;2022-12-07T08:47:49;95359.69;;;7.52;100.00
4617;BME280;2321;42.704;23.384;2022-12-07T08:50:18;95363.66;;;7.57;100.00
4617;BME280;2321;42.704;23.384;2022-12-07T08:52:49;95357.16;;;7.59;100.00
4617;BME280;2321;42.704;23.384;2022-12-07T08:55:17;95345.59;;;7.60;100.00
4617;BME280;2321;42.704;23.384;2022-12-07T08:57:45;95351.34;;;7.64;100.00
4617;BME280;2321;42.704;23.384;2022-12-07T09:00:13;95342.53;;;7.72;100.00
4617;BME280;2321;42.704;23.384;2022-12-07T09:02:43;95342.81;;;7.77;100.00
4617;BME280;2321;42.704;23.384;2022-12-07T09:05:10;95334.72;;;7.70;100.00
4617;BME280;2321;42.704;23.384;2022-12-07T09:07:37;95341.00;;;7.78;100.00
4617;BME280;2321;42.704;23.384;2022-12-07T09:10:07;95335.84;;;7.76;100.00
4617;BME280;2321;42.704;23.384;2022-12-07T09:12:34;95341.16;;;7.76;100.00
4617;BME280;2321;42.704;23.384;2022-12-07T09:15:01;95329.63;;;7.69;100.00
4617;BME280;2321;42.704;23.384;2022-12-07T09:17:31;95313.25;;;7.65;100.00
4617;BME280;2321;42.704;23.384;2022-12-07T09:19:59;95326.75;;;7.79;100.00
4617;BME280;2321;42.704;23.384;2022-12-07T09:22:28;95326.41;;;7.82;100.00
4617;BME280;2321;42.704;23.384;2022-12-07T09:24:55;95324.19;;;7.85;100.00
4617;BME280;2321;42.704;23.384;2022-12-07T09:27:28;95327.59;;;7.94;100.00
4617;BME280;2321;42.704;23.384;2022-12-07T09:29:56;95324.44;;;7.99;100.00
4617;BME280;2321;42.704;23.384;2022-12-07T09:32:23;95326.19;;;8.07;100.00
4617;BME280;2321;42.704;23.384;2022-12-07T09:34:50;95323.03;;;8.12;100.00
4617;BME280;2321;42.704;23.384;2022-12-07T09:37:20;95318.72;;;8.11;100.00
4617;BME280;2321;42.704;23.384;2022-12-07T09:39:50;95309.94;;;8.10;100.00
4617;BME280;2321;42.704;23.384;2022-12-07T09:42:28;95307.28;;;8.10;100.00
4617;BME280;2321;42.704;23.384;2022-12-07T09:44:56;95306.00;;;8.06;100.00
4617;BME280;2321;42.704;23.384;2022-12-07T09:47:24;95297.47;;;7.95;100.00
4617;BME280;2321;42.704;23.384;2022-12-07T09:49:51;95293.50;;;7.91;100.00
4617;BME280;2321;42.704;23.384;2022-12-07T09:52:25;95291.13;;;7.81;100.00
4617;BME280;2321;42.704;23.384;2022-12-07T09:54:53;95284.22;;;7.72;100.00
4617;BME280;2321;42.704;23.384;2022-12-07T09:57:25;95286.94;;;7.87;100.00
4617;BME280;2321;42.704;23.384;2022-12-07T09:59:56;95289.56;;;7.87;100.00
4617;BME280;2321;42.704;23.384;2022-12-07T10:02:37;95293.09;;;7.79;100.00
4617;BME280;2321;42.704;23.384;2022-12-07T10:05:07;95284.78;;;7.82;100.00
4617;BME280;2321;42.704;23.384;2022-12-07T10:07:37;95289.03;;;7.92;100.00
4617;BME280;2321;42.704;23.384;2022-12-07T10:10:09;95281.75;;;7.94;100.00
4617;BME280;2321;42.704;23.384;2022-12-07T10:12:53;95278.53;;;7.99;100.00
4617;BME280;2321;42.704;23.384;2022-12-07T10:15:22;95267.78;;;8.00;100.00
4617;BME280;2321;42.704;23.384;2022-12-07T10:17:51;95273.00;;;8.09;100.00
4617;BME280;2321;42.704;23.384;2022-12-07T10:20:22;95262.03;;;8.12;100.00
4617;BME280;2321;42.704;23.384;2022-12-07T10:23:01;95259.47;;;8.19;100.00
4617;BME280;2321;42.704;23.384;2022-12-07T10:25:30;95253.91;;;8.28;100.00
4617;BME280;2321;42.704;23.384;2022-12-07T10:28:00;95251.00;;;8.38;100.00
4617;BME280;2321;42.704;23.384;2022-12-07T10:30:29;95249.16;;;8.54;100.00
4617;BME280;2321;42.704;23.384;2022-12-07T10:32:58;95244.31;;;8.58;100.00
4617;BME280;2321;42.704;23.384;2022-12-07T10:35:26;95248.59;;;8.59;100.00
4617;BME280;2321;42.704;23.384;2022-12-07T10:37:55;95242.59;;;8.65;100.00
4617;BME280;2321;42.704;23.384;2022-12-07T10:40:31;95242.22;;;8.68;100.00
4617;BME280;2321;42.704;23.384;2022-12-07T10:43:17;95232.16;;;8.79;100.00
4617;BME280;2321;42.704;23.384;2022-12-07T10:46:13;95235.06;;;8.84;100.00
4617;BME280;2321;42.704;23.384;2022-12-07T10:48:54;95230.94;;;8.97;100.00
4617;BME280;2321;42.704;23.384;2022-12-07T10:51:32;95227.63;;;9.10;100.00
4617;BME280;2321;42.704;23.384;2022-12-07T10:54:10;95221.38;;;9.18;100.00
4617;BME280;2321;42.704;23.384;2022-12-07T10:56:50;95223.53;;;9.29;100.00
4617;BME280;2321;42.704;23.384;2022-12-07T10:59:48;95215.38;;;9.31;100.00
4617;BME280;2321;42.704;23.384;2022-12-07T11:02:26;95210.97;;;9.38;100.00
4617;BME280;2321;42.704;23.384;2022-12-07T11:05:07;95207.09;;;9.41;100.00
4617;BME280;2321;42.704;23.384;2022-12-07T11:07:44;95195.06;;;9.45;100.00
4617;BME280;2321;42.704;23.384;2022-12-07T11:10:18;95194.13;;;9.53;100.00
4617;BME280;2321;42.704;23.384;2022-12-07T11:13:00;95197.47;;;9.62;100.00
4617;BME280;2321;42.704;23.384;2022-12-07T11:15:38;95195.28;;;9.72;100.00
4617;BME280;2321;42.704;23.384;2022-12-07T11:18:14;95193.34;;;9.81;100.00
4617;BME280;2321;42.704;23.384;2022-12-07T11:20:55;95191.38;;;9.90;100.00
4617;BME280;2321;42.704;23.384;2022-12-07T11:23:37;95192.66;;;10.01;100.00
4617;BME280;2321;42.704;23.384;2022-12-07T11:26:12;95188.63;;;10.05;100.00
4617;BME280;2321;42.704;23.384;2022-12-07T11:28:57;95176.56;;;10.09;100.00
4617;BME280;2321;42.704;23.384;2022-12-07T11:31:32;95157.34;;;10.14;100.00
4617;BME280;2321;42.704;23.384;2022-12-07T11:34:10;95158.38;;;10.13;100.00
4617;BME280;2321;42.704;23.384;2022-12-07T11:36:42;95157.19;;;10.22;100.00
4617;BME280;2321;42.704;23.384;2022-12-07T11:39:25;95152.34;;;10.33;100.00
4617;BME280;2321;42.704;23.384;2022-12-07T11:41:56;95151.41;;;10.48;100.00
4617;BME280;2321;42.704;23.384;2022-12-07T11:44:31;95157.19;;;10.58;100.00
4617;BME280;2321;42.704;23.384;2022-12-07T11:47:04;95162.28;;;10.53;100.00
4617;BME280;2321;42.704;23.384;2022-12-07T11:49:41;95149.00;;;10.60;100.00
4617;BME280;2321;42.704;23.384;2022-12-07T11:52:18;95149.19;;;10.58;100.00
4617;BME280;2321;42.704;23.384;2022-12-07T11:54:49;95150.06;;;10.65;100.00
4617;BME280;2321;42.704;23.384;2022-12-07T11:57:22;95150.88;;;10.66;100.00
4617;BME280;2321;42.704;23.384;2022-12-07T11:59:57;95155.84;;;10.76;100.00
4617;BME280;2321;42.704;23.384;2022-12-07T12:02:28;95150.94;;;10.86;100.00
4617;BME280;2321;42.704;23.384;2022-12-07T12:05:07;95143.38;;;10.90;100.00
4617;BME280;2321;42.704;23.384;2022-12-07T12:07:41;95138.66;;;10.92;100.00
4617;BME280;2321;42.704;23.384;2022-12-07T12:10:17;95130.47;;;10.87;100.00
4617;BME280;2321;42.704;23.384;2022-12-07T12:13:07;95114.25;;;10.75;100.00
4617;BME280;2321;42.704;23.384;2022-12-07T12:15:59;95125.75;;;10.82;100.00
4617;BME280;2321;42.704;23.384;2022-12-07T12:21:29;95116.53;;;10.85;100.00
4617;BME280;2321;42.704;23.384;2022-12-07T12:24:00;95121.63;;;10.79;100.00
4617;BME280;2321;42.704;23.384;2022-12-07T12:26:31;95115.28;;;10.81;100.00
4617;BME280;2321;42.704;23.384;2022-12-07T12:29:01;95115.25;;;10.74;100.00
4617;BME280;2321;42.704;23.384;2022-12-07T12:31:36;95118.97;;;10.79;100.00
4617;BME280;2321;42.704;23.384;2022-12-07T12:34:32;95112.84;;;10.79;100.00
4617;BME280;2321;42.704;23.384;2022-12-07T12:37:01;95103.81;;;10.73;100.00
4617;BME280;2321;42.704;23.384;2022-12-07T12:39:27;95102.19;;;10.79;100.00
4617;BME280;2321;42.704;23.384;2022-12-07T12:41:58;95100.94;;;10.75;100.00
4617;BME280;2321;42.704;23.384;2022-12-07T12:45:17;95099.53;;;10.79;100.00
4617;BME280;2321;42.704;23.384;2022-12-07T12:47:56;95085.81;;;10.82;100.00
4617;BME280;2321;42.704;23.384;2022-12-07T12:50:26;95084.16;;;10.81;100.00
4617;BME280;2321;42.704;23.384;2022-12-07T12:53:03;95089.69;;;10.86;100.00
4617;BME280;2321;42.704;23.384;2022-12-07T12:56:07;95090.72;;;10.92;100.00
4617;BME280;2321;42.704;23.384;2022-12-07T12:58:40;95088.69;;;10.87;100.00
4617;BME280;2321;42.704;23.384;2022-12-07T13:01:38;95089.94;;;10.92;100.00
4617;BME280;2321;42.704;23.384;2022-12-07T13:04:24;95093.19;;;10.87;100.00
4617;BME280;2321;42.704;23.384;2022-12-07T13:06:52;95089.09;;;10.84;100.00
4617;BME280;2321;42.704;23.384;2022-12-07T13:09:23;95087.44;;;10.90;100.00
4617;BME280;2321;42.704;23.384;2022-12-07T13:11:57;95089.50;;;10.88;100.00
4617;BME280;2321;42.704;23.384;2022-12-07T13:17:56;95084.34;;;10.73;100.00
4617;BME280;2321;42.704;23.384;2022-12-07T13:20:42;95090.69;;;10.72;100.00
4617;BME280;2321;42.704;23.384;2022-12-07T13:23:10;95082.91;;;10.70;100.00
4617;BME280;2321;42.704;23.384;2022-12-07T13:25:46;95077.41;;;10.78;100.00
4617;BME280;2321;42.704;23.384;2022-12-07T13:28:18;95086.81;;;10.81;100.00
4617;BME280;2321;42.704;23.384;2022-12-07T13:30:58;95085.41;;;10.85;100.00
4617;BME280;2321;42.704;23.384;2022-12-07T13:33:28;95084.19;;;10.88;100.00
4617;BME280;2321;42.704;23.384;2022-12-07T13:35:56;95073.31;;;10.89;100.00